Aviation Digital Data Service (ADDS)

Output produced by METARs form (0846 UTC 23 May 2015)
found at http://www.aviationweather.gov/adds/metars/
 
KESN 230901Z AUTO 01005KT 10SM CLR 14/03 A3036 RMK AO2 T01390030